Share

Saint Vincent, MN

St Jean Baptiste MB (IMANITOB76) Elev 774 ft | 49.27 °N, 97.34 °W | Change Station
Active Advisory: Flood Warning Active Notice: Public Information Statement

Current weather conditions updated 14 minutes ago

Partly Cloudy
Partly Cloudy
40.8 °F
Feels Like 39 °F
N
3.2
Wind Variable Wind from NNE
Sunrise 6:33 AM
Sunset 8:23 PM
Moon Waning Gibbous

Today is forecast to be nearly the same temperature as yesterday.

Pressure 30.34 in
Visibility 10.0 miles
Clouds
Windchill 39 °F
Dew Point 9 °F
Humidity 27%
Rainfall 0.00 in
Snow Depth Not available.
UV Not available.
Pollen 8.00 out of 12
Air Quality Not available.
Flu Activity Sporadic
METAR K96D 171915Z AUTO 36008KT 10SM 03/M15 A3034 RMK AO2

More Conditions Fewer Conditions

Pressure 30.34 in
Visibility 10.0 miles
Clouds
Windchill 39 °F
Dew Point 9 °F
Humidity 27%
Rainfall 0.00 in
Snow Depth Not available.
UV Not available.
Pollen 8.00 out of 12
Air Quality Not available.
Flu Activity Sporadic
METAR K96D 171915Z AUTO 36008KT 10SM 03/M15 A3034 RMK AO2

More Conditions Fewer Conditions

10-Day Forecast

Almanac

Astronomy

Apr. 17, 2014 Rise Set
Actual Time 6:33 AM CDT 8:23 PM CDT
Civil Twilight 6:00 AM CDT 8:57 PM CDT
Nautical Twilight 5:18 AM CDT 9:38 PM CDT
Astronomical Twilight 4:33 AM CDT 10:24 PM CDT
Moon 11:21 PM CDT 7:57 AM CDT
Length of Visible Light 14h 57m
Length of Day
13h 50m
Tomorrow will be 3m 27s longer.
Waning Gibbous, 93% of the Moon is Illuminated
Today
Waning Gibbous
Apr 22
Last Quarter
Apr 29
New
May 6
First Quarter
May 14
Full

Today's Extremes

State Highs State Lows

Community

  • New Day
    New Day
  • Lake Michigan Sunrise
    Lake Michigan Sunrise
  • sunset from izmir, narlıdere
    sunset from izmir, narlıdere
  • oregon cherry
    oregon cherry
  • Sunset over the Bay
    Sunset over the Bay

WunderPhotos

Upload Photos

1,702,107 photos uploaded!

Nearby

Snow Depth

Station Depth Elevation
No new snow has been reported.

Coastal Water Temperatures

Place Temperature
No Stations Reporting

Earthquake Activity

City Distance Mag. Time & Date
No recent earthquake activity has been reported nearby.
Minimum magnitude displayed is 2.5.

Nearby Weather Stations

Station Location Temp. Windchill Dew Point Humidity Wind Precip. Elev Updated Type
St Jean Baptiste MB, Saint Jean Baptiste 40.8 °F 39 °F 9 °F 27% NNE  at  3.2 mph - / hr 774 ft 2:17 PM CDT Normal

Show More Stations Show Fewer Stations

What do you think?

We're not finished. Please let us know what you like, what you don't like, and what you are still missing.